Disclaimer

Please do not use the information listed here in-flight or in-navigation, as they are not provided to us by the airports but are provided by volunteers, so they might be outdated.

Search


Regions


Airport information page

Radio informations:
Tower (TWR) - 118.1 MHz
Approach (APP) - 119.9 MHz

Airport informations:
Latitude: 04° 49' 11.31" N
Longitude: 052° 21' 37.61" W
Elevation: 26 feet - 8 meters
Operating hours: N/A
Operating agency: Civil government, landing fees and diplomatic clearance may be required
Timezone: UTC-3
Fuel: Jet A1, without icing nhibitor.

100/130 octane gasoline, leaded, MIL-L-5572F (GREEN)

Runway information:
08/26 - 10486 x 148 feet< - >3196 x 45 meters

Recent METARs:
SOCA 211730Z AUTO 05012KT 9999 FEW030/// SCT044/// BKN050/// 30/23 Q1010 TEMPO SHRA FEW015TCU
SOCA 211800Z AUTO 06012KT 010V080 9999 SCT030/// SCT037/// BKN048/// 31/23 Q1010 TEMPO SHRA FEW015TCU
SOCA 211830Z AUTO 05012KT 020V080 9999 BKN027/// 30/23 Q1010 TEMPO SHRA FEW015TCU

Airport on the map: